Latest Coastal Weather Observations for Cape Byron

IDN60701

Issued at 4:11 am EDT Wednesday 18 October 2017 (issued every 10 minutes, with the page automatically refreshed every 10 minutes)

About coastal observations | Map of coastal stations | Coastal observations for NSW | Marine services | Other Formats
Station Details ID: 058216 Name: CAPE BYRON AWS Lat: -28.64 Lon: 153.64 Height: 95.0 m
Data from the previous 72 hours. | See also: Recent months at Cape Byron
Date/Time
EDT
Temp
°C
Wind Pressure Rain since
9am
mm
Weather Cloud Vis
km
Sea
Height
m
Swell
Dir  Spd
kts
Gust
kts
hPa Trend Height
m
Period
s
Dir
18/04:00am 19.8 E 21 27 1023.7 - 0.8 - - - - - - -
18/03:30am 19.8 ENE 16 23 1023.6 - 0.8 - - - - - - -
18/03:00am 19.8 E 17 23 1023.7 - 0.8 - - - - - - -
18/02:30am 19.8 ENE 15 26 1023.9 - 0.8 - - - - - - -
18/02:28am 19.8 ENE 15 26 1023.9 - 0.8 - - - - - - -
18/02:00am 19.6 E 14 21 1024.3 - 0.8 - - - - - - -
18/01:30am 19.5 E 14 24 1024.6 - 0.8 - - - - - - -
18/01:20am 19.5 E 17 27 1024.7 - 0.8 - - - - - - -
18/01:00am 19.8 E 17 23 1024.9 - 0.8 - - - - - - -
18/12:30am 19.8 ENE 15 24 1025.4 - 0.8 - - - - - - -
18/12:00am 20.0 E 15 21 1025.6 - 0.8 - - - - - - -
 
Date/Time
EDT
Temp
°C
Wind Pressure Rain since
9am
mm
Weather Cloud Vis
km
Sea
Height
m
Swell
Dir  Spd
kts
Gust
kts
hPa Trend Height
m
Period
s
Dir
17/11:30pm 19.9 E 20 25 1025.4 - 0.8 - - - - - - -
17/11:00pm 19.9 E 21 25 1025.0 - 0.8 - - - - - - -
17/10:30pm 19.9 E 22 28 1025.0 - 0.8 - - - - - - -
17/10:00pm 19.8 E 18 24 1025.1 - 0.8 - - - - - - -
17/09:40pm 19.9 E 18 28 1025.2 - 0.8 - - - - - - -
17/09:30pm 19.9 E 21 25 1025.2 - 0.8 - - - - - - -
17/09:00pm 19.9 E 21 29 1024.9 - 0.8 - - - - - - -
17/08:30pm 19.8 E 23 29 1024.7 - 0.8 - - - - - - -
17/08:00pm 19.9 E 23 28 1024.4 - 0.8 - - - - - - -
17/07:30pm 19.8 E 23 29 1024.0 - 0.8 - - - - - - -
17/07:00pm 19.9 E 22 30 1023.9 - 0.8 - - - - - - -
17/06:30pm 19.9 E 21 28 1023.7 - 0.8 - - - - - - -
17/06:00pm 19.9 E 23 31 1023.1 - 0.8 - - - - - - -
17/05:30pm 19.9 E 21 29 1023.0 - 0.8 - - - - - - -
17/05:00pm 19.7 E 24 31 1022.6 - 0.8 - - - - - - -
17/04:30pm 19.5 E 22 30 1022.7 - 0.8 - - - - - - -
17/04:00pm 18.7 E 27 34 1022.1 - 0.8 - - - - - - -
17/03:30pm 19.5 E 22 28 1022.6 - 0.6 - - - - - - -
17/03:00pm 19.9 E 25 30 1022.4 - 0.6 - - - - - - -
17/02:30pm 19.1 E 21 25 1022.8 - 0.6 - - - - - - -
17/02:00pm 19.4 E 24 29 1023.0 - 0.6 - - - - - - -
17/01:40pm 19.7 E 25 37 1022.9 - 0.4 - - - - - - -
17/01:30pm 19.2 E 26 35 1023.2 - 0.4 - - - - - - -
17/01:00pm 19.5 E 22 28 1023.4 - 0.4 - - - - - - -
17/12:30pm 20.3 E 25 30 1023.5 - 0.4 - - - - - - -
17/12:00pm 20.0 E 27 32 1023.5 - 0.4 Recent precip. - - - - - -
17/11:30am 19.1 E 25 29 1023.9 - 0.4 - - - - - - -
17/11:00am 19.2 E 25 31 1024.2 - 0.2 - - - - - - -
17/10:30am 20.2 E 26 30 1023.9 - 0.2 - - - - - - -
17/10:09am 18.4 ESE 25 29 1024.2 - 0.2 - - - - - - -
17/10:00am 18.6 E 29 38 1024.1 - 0.2 - - - - - - -
17/09:52am 19.0 E 27 38 1023.7 - 0.2 - - - - - - -
17/09:30am 19.1 ESE 25 32 1023.8 - 0.2 - - - - - - -
17/09:11am 20.1 E 27 39 1023.3 - 0.0 - - - - - - -
17/09:00am 19.7 ESE 27 33 1023.3 - 2.0 - - - - - - -
17/08:30am 19.7 E 29 34 1022.7 - - - - - - - - -
17/08:00am 19.9 E 27 33 1022.6 - - - - - - - - -
17/07:30am 19.7 E 27 31 1022.5 - - - - - - - - -
17/07:00am 19.5 E 25 32 1022.4 - - - - - - - - -
17/06:30am 19.9 E 27 36 1021.9 - - - - - - - - -
17/06:00am 19.6 E 26 32 1021.9 - - - - - - - - -
17/05:30am 19.4 E 26 30 1021.6 - - - - - - - - -
17/05:00am 19.7 E 23 28 1021.6 - - - - - - - - -
17/04:30am 19.7 E 24 29 1021.6 - - - - - - - - -
17/04:00am 19.5 E 22 31 1021.5 - - - - - - - - -
17/03:30am 19.3 E 28 34 1021.3 - - - - - - - - -
17/03:00am 19.0 E 25 33 1021.4 - 0.0 - - - - - - -
17/02:30am 19.8 E 25 29 1021.6 - - - - - - - - -
17/02:00am 19.8 E 26 31 1022.0 - - - - - - - - -
17/01:30am 19.9 E 25 30 1022.5 - - - - - - - - -
17/01:00am 19.9 E 25 31 1022.6 - - - - - - - - -
17/12:30am 19.8 E 26 31 1022.7 - - - - - - - - -
17/12:00am 19.9 E 25 30 1022.9 - - - - - - - - -
 
Date/Time
EDT
Temp
°C
Wind Pressure Rain since
9am
mm
Weather Cloud Vis
km
Sea
Height
m
Swell
Dir  Spd
kts
Gust
kts
hPa Trend Height
m
Period
s
Dir
16/11:30pm 20.0 E 24 32 1023.0 - - - - - - - - -
16/11:00pm 20.0 E 26 33 1022.8 - - - - - - - - -
16/10:32pm 20.0 E 22 32 1022.9 - - - - - - - - -
16/10:30pm 20.1 E 23 32 1022.9 - - - - - - - - -
16/10:00pm 20.0 E 27 33 1022.7 - - - - - - - - -
16/09:30pm 19.9 E 27 32 1022.6 - - - - - - - - -
16/09:00pm 19.6 E 27 35 1022.3 - 0.8 - - - - - - -
16/08:30pm 19.5 E 31 35 1022.1 - - - - - - - - -
16/08:00pm 19.4 E 30 35 1021.7 - - - - - - - - -
16/07:30pm 19.4 E 28 33 1021.7 - - - - - - - - -
16/07:00pm 19.4 E 27 33 1021.6 - - - - - - - - -
16/06:30pm 19.3 E 29 34 1021.0 - - - - - - - - -
16/06:00pm 19.9 E 27 32 1020.9 - - - - - - - - -
16/05:30pm 19.9 E 26 31 1020.9 - - - - - - - - -
16/05:00pm 20.0 E 23 31 1020.8 - - - - - - - - -
16/04:30pm 19.9 E 28 35 1020.4 - - - - - - - - -
16/04:00pm 19.8 E 27 31 1020.1 - - - - - - - - -
16/03:33pm 19.9 E 27 39 1019.9 - - - - - - - - -
16/03:30pm 20.1 E 25 30 1020.2 - - - - - - - - -
16/03:00pm 20.5 E 27 34 1020.3 - 1.0 - - - - - - -
16/02:30pm 20.1 E 25 30 1020.6 - - - - - - - - -
16/02:00pm 21.0 E 25 31 1020.8 - - - - - - - - -
16/01:30pm 21.4 E 21 27 1021.4 - - - - - - - - -
16/01:00pm 21.9 E 20 27 1021.5 - - - - - - - - -
16/12:30pm 21.8 E 18 27 1021.8 - - - - - - - - -
16/12:00pm 21.0 E 20 26 1022.0 - - Recent precip. - - - - - -
16/11:35am 20.1 E 22 32 1021.9 - - - - - - - - -
16/11:30am 20.1 E 21 29 1022.0 - - - - - - - - -
16/11:22am 20.1 E 15 25 1022.3 - - - - - - - - -
16/11:00am 21.2 E 22 28 1022.1 - - - - - - - - -
16/10:30am 22.1 E 22 29 1022.2 - - - - - - - - -
16/10:00am 21.7 E 20 29 1022.1 - - - - - - - - -
16/09:57am 21.6 E 21 31 1022.2 - - - - - - - - -
16/09:30am 21.8 E 21 28 1022.1 - - - - - - - - -
16/09:00am 20.9 E 27 32 1021.6 - 9.4 - - - - - - -
16/08:30am 20.4 E 22 30 1021.3 - 9.4 - - - - - - -
16/08:00am 20.1 E 21 29 1020.9 - 9.4 - - - - - - -
16/07:31am 19.2 E 21 29 1020.6 - 9.4 - - - - - - -
16/07:30am 19.1 E 21 29 1020.7 - 9.4 - - - - - - -
16/07:27am 19.1 E 23 29 1020.6 - 9.4 - - - - - - -
16/07:00am 18.8 E 30 35 1019.7 - 9.2 - - - - - - -
16/06:34am 18.5 E 26 36 1020.0 - 8.4 - - - - - - -
16/06:30am 19.0 E 28 34 1019.6 - 7.2 - - - - - - -
16/06:00am 18.9 E 28 33 1019.3 - 7.2 Recent precip. - - - - - -
16/05:30am 18.5 E 25 33 1018.8 - 7.2 - - - - - - -
16/05:00am 18.6 E 29 35 1018.6 - 6.0 - - - - - - -
16/04:30am 18.7 E 30 35 1018.6 - 5.2 - - - - - - -
16/04:16am 18.7 E 26 36 1018.3 - 3.4 - - - - - - -
16/04:00am 18.7 E 31 39 1018.3 - 3.2 - - - - - - -
16/03:30am 19.1 E 30 35 1018.4 - 3.0 - - - - - - -
16/03:00am 19.1 E 31 37 1018.4 - 3.0 Rain - - - - - -
16/02:30am 19.4 E 31 38 1018.8 - 2.8 - - - - - - -
16/02:00am 19.6 E 27 33 1019.3 - 2.8 - - - - - - -
16/01:30am 19.5 E 28 34 1019.5 - 2.8 - - - - - - -
16/01:00am 19.5 E 27 33 1020.2 - 2.8 - - - - - - -
16/12:30am 19.3 E 29 34 1020.5 - 2.8 - - - - - - -
16/12:00am 19.3 E 28 33 1020.5 - 2.8 Recent precip. - - - - - -
 
Date/Time
EDT
Temp
°C
Wind Pressure Rain since
9am
mm
Weather Cloud Vis
km
Sea
Height
m
Swell
Dir  Spd
kts
Gust
kts
hPa Trend Height
m
Period
s
Dir
15/11:30pm 18.8 E 25 29 1020.8 - 2.8 - - - - - - -
15/11:00pm 18.7 E 25 30 1020.7 - 2.4 - - - - - - -
15/10:30pm 18.6 E 27 32 1020.7 - 2.2 - - - - - - -
15/10:00pm 18.6 E 31 35 1020.6 - 2.2 - - - - - - -
15/09:30pm 19.2 E 30 35 1020.3 - 2.2 - - - - - - -
15/09:00pm 18.3 E 31 38 1020.3 - 2.2 - - - - - - -
15/08:30pm 18.7 E 28 33 1020.1 - 2.2 - - - - - - -
15/08:00pm 18.5 E 29 37 1019.8 - 2.2 - - - - - - -
15/07:37pm 18.4 E 31 41 1019.5 - 1.8 - - - - - - -
15/07:30pm 18.0 E 31 38 1019.4 - 1.6 - - - - - - -
15/07:14pm 17.9 E 25 32 1019.6 - 1.6 - - - - - - -
15/07:00pm 18.6 E 22 32 1019.6 - 1.2 - - - - - - -
15/06:59pm 18.6 E 22 32 1019.6 - 1.2 - - - - - - -
15/06:30pm 18.7 E 29 36 1019.2 - 1.0 - - - - - - -
15/06:00pm 18.7 E 32 38 1018.5 - 0.4 Rain - - - - - -
15/05:30pm 19.0 E 31 36 1018.2 - 0.2 - - - - - - -
15/05:00pm 19.3 E 33 38 1018.0 - 0.2 - - - - - - -
15/04:30pm 19.5 E 32 39 1017.7 - 0.2 - - - - - - -
15/04:00pm 19.3 ESE 29 37 1017.9 - 0.2 - - - - - - -
15/03:30pm 20.1 E 30 36 1017.6 - 0.2 - - - - - - -
15/03:00pm 20.4 ESE 29 37 1017.8 - 0.2 - - - - - - -
15/02:30pm 20.1 E 31 35 1017.9 - 0.2 - - - - - - -
15/02:24pm 20.1 E 30 36 1017.9 - 0.2 - - - - - - -
15/02:00pm 18.6 ESE 27 36 1018.2 - 0.2 - - - - - - -
15/01:30pm 20.7 E 30 34 1018.2 - 0.0 - - - - - - -
15/01:06pm 19.7 E 29 39 1018.7 - 0.0 - - - - - - -
15/01:00pm 19.4 E 31 39 1018.7 - 0.0 - - - - - - -
15/12:30pm 20.3 E 30 35 1018.8 - 0.0 - - - - - - -
15/12:00pm 20.1 E 29 33 1019.0 - 0.0 - - - - - - -
15/11:30am 20.8 E 28 35 1019.2 - 0.0 - - - - - - -
15/11:00am 21.0 E 29 35 1019.1 - 0.0 - - - - - - -
15/10:30am 21.2 E 29 35 1019.2 - 0.0 - - - - - - -
15/10:00am 20.8 E 29 34 1019.1 - 0.0 - - - - - - -
15/09:30am 20.4 E 29 35 1019.0 - 0.0 - - - - - - -
15/09:00am 19.8 E 32 37 1018.3 - 63.6 - - - - - - -
15/08:30am 19.9 E 32 37 1018.2 - 63.6 - - - - - - -
15/08:00am 19.6 E 32 37 1018.0 - 63.6 - - - - - - -
15/07:30am 19.5 E 31 36 1017.6 - 63.6 - - - - - - -
15/07:00am 19.2 E 30 35 1017.4 - 63.6 - - - - - - -
15/06:47am 19.0 E 29 33 1017.4 - 63.6 - - - - - - -
15/06:30am 18.1 E 20 32 1017.5 - 63.6 - - - - - - -
15/06:01am 18.3 E 17 27 1017.6 - 63.4 - - - - - - -
15/06:00am 18.3 E 17 24 1017.6 - 63.4 - - - - - - -
15/05:47am 19.5 E 26 36 1017.3 - 63.4 - - - - - - -
15/05:46am 19.6 E 28 36 1017.1 - 63.4 - - - - - - -
15/05:30am 19.5 E 30 36 1016.6 - 63.4 - - - - - - -
15/05:00am 19.2 E 30 36 1016.2 - 63.4 - - - - - - -
15/04:30am 18.9 E 27 35 1016.3 - 63.4 - - - - - - -

Other Formats:

Comma delimited format used in spreadsheet applications
http://www.bom.gov.au/fwo/IDN60701/IDN60701.94599.axf

JavaScript Object Notation format (JSON) in row-major order
http://www.bom.gov.au/fwo/IDN60701/IDN60701.94599.json